Terminal Aerodrome Forecast
Issued by NWS Boston, MA

Home | Current Version | Previous Version | Text Only | Print | Product List | Glossary On
Versions: 1 2 3 4 5 6 7 8 9 10 11 12 13 14 15 16 17 18 19 20 21 22 23
227
FTUS41 KBOX 221741 RRA
TAFBDL
TAF
KBDL 221741Z 2218/2324 27015G23KT P6SM SCT080
     FM230300 32008KT P6SM FEW250
     FM231800 28010G18KT P6SM SKC
     FM232300 24007KT P6SM SKC=

USA.gov is the U.S. government's official web portal to all federal, state and local government web resources and services.